<?xml version="1.0" encoding="UTF-8" standalone="no" ?>
<gpx xmlns="http://www.topografix.com/GPX/1/1" xmlns:xsi="http://www.w3.org/2001/XMLSchema-instance" xsi:schemaLocation="http://www.topografix.com/GPX/1/1 http://www.topografix.com/GPX/1/1/gpx.xsd" version="1.1" creator="VisuGPX - https://www.visugpx.com">
  <metadata>
    <name>Sortie Moto</name>
  </metadata>
  <trk>
    <name><![CDATA[Journal actif: 2020-04-11 16:04]]></name>
    <trkseg>
      <trkpt lat="46.07078" lon="6.30057">
        <ele>588.95</ele>
        <time>2020-04-11T14:04:33Z</time>
      </trkpt>
      <trkpt lat="46.07079" lon="6.30057">
        <ele>589.91</ele>
        <time>2020-04-11T14:04:35Z</time>
      </trkpt>
      <trkpt lat="46.07092" lon="6.30054">
        <ele>590.87</ele>
        <time>2020-04-11T14:04:37Z</time>
      </trkpt>
      <trkpt lat="46.0711" lon="6.3003">
        <ele>582.7</ele>
        <time>2020-04-11T14:04:39Z</time>
      </trkpt>
      <trkpt lat="46.07138" lon="6.30007">
        <ele>587.98</ele>
        <time>2020-04-11T14:04:42Z</time>
      </trkpt>
      <trkpt lat="46.07231" lon="6.2993">
        <ele>595.67</ele>
        <time>2020-04-11T14:04:51Z</time>
      </trkpt>
      <trkpt lat="46.07312" lon="6.29866">
        <ele>597.6</ele>
        <time>2020-04-11T14:05:01Z</time>
      </trkpt>
      <trkpt lat="46.07375" lon="6.29818">
        <ele>600</ele>
        <time>2020-04-11T14:05:09Z</time>
      </trkpt>
      <trkpt lat="46.07494" lon="6.29744">
        <ele>597.6</ele>
        <time>2020-04-11T14:05:18Z</time>
      </trkpt>
      <trkpt lat="46.07509" lon="6.29738">
        <ele>597.12</ele>
        <time>2020-04-11T14:05:19Z</time>
      </trkpt>
      <trkpt lat="46.07525" lon="6.29736">
        <ele>596.64</ele>
        <time>2020-04-11T14:05:20Z</time>
      </trkpt>
      <trkpt lat="46.07555" lon="6.29737">
        <ele>595.19</ele>
        <time>2020-04-11T14:05:22Z</time>
      </trkpt>
      <trkpt lat="46.0757" lon="6.29739">
        <ele>594.71</ele>
        <time>2020-04-11T14:05:23Z</time>
      </trkpt>
      <trkpt lat="46.07583" lon="6.29745">
        <ele>594.71</ele>
        <time>2020-04-11T14:05:24Z</time>
      </trkpt>
      <trkpt lat="46.07624" lon="6.29761">
        <ele>594.23</ele>
        <time>2020-04-11T14:05:27Z</time>
      </trkpt>
      <trkpt lat="46.07639" lon="6.29761">
        <ele>593.75</ele>
        <time>2020-04-11T14:05:28Z</time>
      </trkpt>
      <trkpt lat="46.07653" lon="6.29761">
        <ele>593.75</ele>
        <time>2020-04-11T14:05:29Z</time>
      </trkpt>
      <trkpt lat="46.07668" lon="6.29758">
        <ele>593.27</ele>
        <time>2020-04-11T14:05:30Z</time>
      </trkpt>
      <trkpt lat="46.07683" lon="6.29749">
        <ele>592.79</ele>
        <time>2020-04-11T14:05:31Z</time>
      </trkpt>
      <trkpt lat="46.07698" lon="6.29739">
        <ele>592.79</ele>
        <time>2020-04-11T14:05:32Z</time>
      </trkpt>
      <trkpt lat="46.07744" lon="6.2971">
        <ele>591.83</ele>
        <time>2020-04-11T14:05:35Z</time>
      </trkpt>
      <trkpt lat="46.07758" lon="6.297">
        <ele>591.35</ele>
        <time>2020-04-11T14:05:36Z</time>
      </trkpt>
      <trkpt lat="46.07806" lon="6.29657">
        <ele>590.87</ele>
        <time>2020-04-11T14:05:41Z</time>
      </trkpt>
      <trkpt lat="46.07812" lon="6.29649">
        <ele>591.35</ele>
        <time>2020-04-11T14:05:42Z</time>
      </trkpt>
      <trkpt lat="46.07816" lon="6.29643">
        <ele>591.35</ele>
        <time>2020-04-11T14:05:43Z</time>
      </trkpt>
      <trkpt lat="46.07819" lon="6.29635">
        <ele>591.35</ele>
        <time>2020-04-11T14:05:44Z</time>
      </trkpt>
      <trkpt lat="46.0782" lon="6.29625">
        <ele>591.35</ele>
        <time>2020-04-11T14:05:45Z</time>
      </trkpt>
      <trkpt lat="46.07815" lon="6.29621">
        <ele>590.87</ele>
        <time>2020-04-11T14:05:46Z</time>
      </trkpt>
      <trkpt lat="46.07809" lon="6.29617">
        <ele>590.87</ele>
        <time>2020-04-11T14:05:47Z</time>
      </trkpt>
      <trkpt lat="46.07802" lon="6.29618">
        <ele>590.87</ele>
        <time>2020-04-11T14:05:48Z</time>
      </trkpt>
      <trkpt lat="46.07793" lon="6.29623">
        <ele>591.35</ele>
        <time>2020-04-11T14:05:49Z</time>
      </trkpt>
      <trkpt lat="46.07784" lon="6.2963">
        <ele>591.83</ele>
        <time>2020-04-11T14:05:50Z</time>
      </trkpt>
      <trkpt lat="46.07776" lon="6.29637">
        <ele>592.31</ele>
        <time>2020-04-11T14:05:51Z</time>
      </trkpt>
      <trkpt lat="46.07768" lon="6.29643">
        <ele>592.31</ele>
        <time>2020-04-11T14:05:52Z</time>
      </trkpt>
      <trkpt lat="46.0776" lon="6.29649">
        <ele>592.79</ele>
        <time>2020-04-11T14:05:53Z</time>
      </trkpt>
      <trkpt lat="46.07752" lon="6.29649">
        <ele>592.31</ele>
        <time>2020-04-11T14:05:54Z</time>
      </trkpt>
      <trkpt lat="46.07744" lon="6.29646">
        <ele>592.31</ele>
        <time>2020-04-11T14:05:55Z</time>
      </trkpt>
      <trkpt lat="46.07736" lon="6.29642">
        <ele>592.31</ele>
        <time>2020-04-11T14:05:56Z</time>
      </trkpt>
      <trkpt lat="46.07728" lon="6.29638">
        <ele>592.79</ele>
        <time>2020-04-11T14:05:57Z</time>
      </trkpt>
      <trkpt lat="46.07718" lon="6.29622">
        <ele>593.27</ele>
        <time>2020-04-11T14:05:58Z</time>
      </trkpt>
      <trkpt lat="46.07712" lon="6.29603">
        <ele>593.75</ele>
        <time>2020-04-11T14:05:59Z</time>
      </trkpt>
      <trkpt lat="46.07703" lon="6.29578">
        <ele>594.23</ele>
        <time>2020-04-11T14:06:00Z</time>
      </trkpt>
      <trkpt lat="46.07648" lon="6.29423">
        <ele>597.12</ele>
        <time>2020-04-11T14:06:04Z</time>
      </trkpt>
      <trkpt lat="46.07617" lon="6.29341">
        <ele>599.04</ele>
        <time>2020-04-11T14:06:06Z</time>
      </trkpt>
      <trkpt lat="46.07601" lon="6.29301">
        <ele>600.48</ele>
        <time>2020-04-11T14:06:07Z</time>
      </trkpt>
      <trkpt lat="46.07505" lon="6.29141">
        <ele>609.61</ele>
        <time>2020-04-11T14:06:12Z</time>
      </trkpt>
      <trkpt lat="46.07491" lon="6.29103">
        <ele>611.06</ele>
        <time>2020-04-11T14:06:13Z</time>
      </trkpt>
      <trkpt lat="46.07455" lon="6.28978">
        <ele>617.3</ele>
        <time>2020-04-11T14:06:17Z</time>
      </trkpt>
      <trkpt lat="46.07441" lon="6.28954">
        <ele>618.75</ele>
        <time>2020-04-11T14:06:18Z</time>
      </trkpt>
      <trkpt lat="46.07426" lon="6.2893">
        <ele>620.19</ele>
        <time>2020-04-11T14:06:19Z</time>
      </trkpt>
      <trkpt lat="46.07411" lon="6.28905">
        <ele>621.63</ele>
        <time>2020-04-11T14:06:20Z</time>
      </trkpt>
      <trkpt lat="46.07393" lon="6.28887">
        <ele>623.07</ele>
        <time>2020-04-11T14:06:21Z</time>
      </trkpt>
      <trkpt lat="46.07372" lon="6.28871">
        <ele>624.51</ele>
        <time>2020-04-11T14:06:22Z</time>
      </trkpt>
      <trkpt lat="46.07351" lon="6.28857">
        <ele>625.96</ele>
        <time>2020-04-11T14:06:23Z</time>
      </trkpt>
      <trkpt lat="46.07328" lon="6.28846">
        <ele>627.88</ele>
        <time>2020-04-11T14:06:24Z</time>
      </trkpt>
      <trkpt lat="46.07304" lon="6.28838">
        <ele>629.32</ele>
        <time>2020-04-11T14:06:25Z</time>
      </trkpt>
      <trkpt lat="46.0728" lon="6.28834">
        <ele>631.24</ele>
        <time>2020-04-11T14:06:26Z</time>
      </trkpt>
      <trkpt lat="46.07256" lon="6.2883">
        <ele>632.68</ele>
        <time>2020-04-11T14:06:27Z</time>
      </trkpt>
      <trkpt lat="46.07231" lon="6.28827">
        <ele>634.13</ele>
        <time>2020-04-11T14:06:28Z</time>
      </trkpt>
      <trkpt lat="46.07062" lon="6.28809">
        <ele>645.18</ele>
        <time>2020-04-11T14:06:36Z</time>
      </trkpt>
      <trkpt lat="46.0695" lon="6.28747">
        <ele>653.35</ele>
        <time>2020-04-11T14:06:43Z</time>
      </trkpt>
      <trkpt lat="46.06829" lon="6.2868">
        <ele>661.04</ele>
        <time>2020-04-11T14:06:49Z</time>
      </trkpt>
      <trkpt lat="46.06807" lon="6.28674">
        <ele>662.01</ele>
        <time>2020-04-11T14:06:50Z</time>
      </trkpt>
      <trkpt lat="46.06786" lon="6.28673">
        <ele>662.97</ele>
        <time>2020-04-11T14:06:51Z</time>
      </trkpt>
      <trkpt lat="46.06765" lon="6.28677">
        <ele>664.41</ele>
        <time>2020-04-11T14:06:52Z</time>
      </trkpt>
      <trkpt lat="46.06744" lon="6.28681">
        <ele>665.37</ele>
        <time>2020-04-11T14:06:53Z</time>
      </trkpt>
      <trkpt lat="46.06724" lon="6.28687">
        <ele>666.33</ele>
        <time>2020-04-11T14:06:54Z</time>
      </trkpt>
      <trkpt lat="46.06704" lon="6.28699">
        <ele>667.29</ele>
        <time>2020-04-11T14:06:55Z</time>
      </trkpt>
      <trkpt lat="46.06684" lon="6.2871">
        <ele>668.73</ele>
        <time>2020-04-11T14:06:56Z</time>
      </trkpt>
      <trkpt lat="46.06665" lon="6.28722">
        <ele>669.7</ele>
        <time>2020-04-11T14:06:57Z</time>
      </trkpt>
      <trkpt lat="46.06505" lon="6.28818">
        <ele>678.83</ele>
        <time>2020-04-11T14:07:06Z</time>
      </trkpt>
      <trkpt lat="46.06479" lon="6.28826">
        <ele>680.27</ele>
        <time>2020-04-11T14:07:08Z</time>
      </trkpt>
      <trkpt lat="46.06468" lon="6.28829">
        <ele>680.75</ele>
        <time>2020-04-11T14:07:09Z</time>
      </trkpt>
      <trkpt lat="46.06452" lon="6.28819">
        <ele>681.71</ele>
        <time>2020-04-11T14:07:10Z</time>
      </trkpt>
      <trkpt lat="46.06447" lon="6.28817">
        <ele>682.67</ele>
        <time>2020-04-11T14:07:11Z</time>
      </trkpt>
      <trkpt lat="46.06436" lon="6.28819">
        <ele>683.15</ele>
        <time>2020-04-11T14:07:12Z</time>
      </trkpt>
      <trkpt lat="46.06428" lon="6.28826">
        <ele>684.12</ele>
        <time>2020-04-11T14:07:13Z</time>
      </trkpt>
      <trkpt lat="46.06418" lon="6.28838">
        <ele>684.12</ele>
        <time>2020-04-11T14:07:14Z</time>
      </trkpt>
      <trkpt lat="46.06407" lon="6.2884">
        <ele>684.12</ele>
        <time>2020-04-11T14:07:15Z</time>
      </trkpt>
      <trkpt lat="46.06392" lon="6.28843">
        <ele>684.12</ele>
        <time>2020-04-11T14:07:16Z</time>
      </trkpt>
      <trkpt lat="46.06376" lon="6.28847">
        <ele>684.12</ele>
        <time>2020-04-11T14:07:17Z</time>
      </trkpt>
      <trkpt lat="46.0625" lon="6.2888">
        <ele>689.4</ele>
        <time>2020-04-11T14:07:23Z</time>
      </trkpt>
      <trkpt lat="46.05931" lon="6.28987">
        <ele>707.67</ele>
        <time>2020-04-11T14:07:37Z</time>
      </trkpt>
      <trkpt lat="46.05781" lon="6.29004">
        <ele>714.88</ele>
        <time>2020-04-11T14:07:44Z</time>
      </trkpt>
      <trkpt lat="46.05716" lon="6.28976">
        <ele>718.72</ele>
        <time>2020-04-11T14:07:47Z</time>
      </trkpt>
      <trkpt lat="46.05692" lon="6.2896">
        <ele>720.16</ele>
        <time>2020-04-11T14:07:48Z</time>
      </trkpt>
      <trkpt lat="46.0567" lon="6.28941">
        <ele>721.13</ele>
        <time>2020-04-11T14:07:49Z</time>
      </trkpt>
      <trkpt lat="46.05649" lon="6.28918">
        <ele>722.57</ele>
        <time>2020-04-11T14:07:50Z</time>
      </trkpt>
      <trkpt lat="46.05632" lon="6.2889">
        <ele>723.53</ele>
        <time>2020-04-11T14:07:51Z</time>
      </trkpt>
      <trkpt lat="46.05615" lon="6.28862">
        <ele>724.97</ele>
        <time>2020-04-11T14:07:52Z</time>
      </trkpt>
      <trkpt lat="46.056" lon="6.28832">
        <ele>726.41</ele>
        <time>2020-04-11T14:07:53Z</time>
      </trkpt>
      <trkpt lat="46.05587" lon="6.288">
        <ele>727.86</ele>
        <time>2020-04-11T14:07:54Z</time>
      </trkpt>
      <trkpt lat="46.05474" lon="6.28478">
        <ele>741.79</ele>
        <time>2020-04-11T14:08:04Z</time>
      </trkpt>
      <trkpt lat="46.05347" lon="6.28118">
        <ele>751.89</ele>
        <time>2020-04-11T14:08:15Z</time>
      </trkpt>
      <trkpt lat="46.0519" lon="6.27658">
        <ele>757.18</ele>
        <time>2020-04-11T14:08:28Z</time>
      </trkpt>
      <trkpt lat="46.05135" lon="6.27394">
        <ele>760.54</ele>
        <time>2020-04-11T14:08:34Z</time>
      </trkpt>
      <trkpt lat="46.05125" lon="6.27147">
        <ele>765.83</ele>
        <time>2020-04-11T14:08:40Z</time>
      </trkpt>
      <trkpt lat="46.05148" lon="6.26813">
        <ele>775.92</ele>
        <time>2020-04-11T14:08:49Z</time>
      </trkpt>
      <trkpt lat="46.05144" lon="6.26777">
        <ele>776.88</ele>
        <time>2020-04-11T14:08:50Z</time>
      </trkpt>
      <trkpt lat="46.05141" lon="6.2674">
        <ele>777.36</ele>
        <time>2020-04-11T14:08:51Z</time>
      </trkpt>
      <trkpt lat="46.05132" lon="6.26706">
        <ele>777.36</ele>
        <time>2020-04-11T14:08:52Z</time>
      </trkpt>
      <trkpt lat="46.05123" lon="6.26672">
        <ele>777.36</ele>
        <time>2020-04-11T14:08:53Z</time>
      </trkpt>
      <trkpt lat="46.05111" lon="6.26639">
        <ele>777.36</ele>
        <time>2020-04-11T14:08:54Z</time>
      </trkpt>
      <trkpt lat="46.05097" lon="6.26607">
        <ele>777.84</ele>
        <time>2020-04-11T14:08:55Z</time>
      </trkpt>
      <trkpt lat="46.05081" lon="6.26578">
        <ele>778.81</ele>
        <time>2020-04-11T14:08:56Z</time>
      </trkpt>
      <trkpt lat="46.05063" lon="6.2655">
        <ele>779.77</ele>
        <time>2020-04-11T14:08:57Z</time>
      </trkpt>
      <trkpt lat="46.05042" lon="6.26526">
        <ele>780.73</ele>
        <time>2020-04-11T14:08:58Z</time>
      </trkpt>
      <trkpt lat="46.0502" lon="6.26504">
        <ele>782.17</ele>
        <time>2020-04-11T14:08:59Z</time>
      </trkpt>
      <trkpt lat="46.04997" lon="6.26481">
        <ele>783.13</ele>
        <time>2020-04-11T14:09:00Z</time>
      </trkpt>
      <trkpt lat="46.04884" lon="6.26377">
        <ele>789.38</ele>
        <time>2020-04-11T14:09:05Z</time>
      </trkpt>
      <trkpt lat="46.04865" lon="6.26352">
        <ele>790.34</ele>
        <time>2020-04-11T14:09:06Z</time>
      </trkpt>
      <trkpt lat="46.04849" lon="6.26324">
        <ele>791.78</ele>
        <time>2020-04-11T14:09:07Z</time>
      </trkpt>
      <trkpt lat="46.04708" lon="6.26036">
        <ele>803.8</ele>
        <time>2020-04-11T14:09:17Z</time>
      </trkpt>
      <trkpt lat="46.04594" lon="6.25802">
        <ele>811.49</ele>
        <time>2020-04-11T14:09:27Z</time>
      </trkpt>
      <trkpt lat="46.04467" lon="6.25535">
        <ele>813.89</ele>
        <time>2020-04-11T14:09:36Z</time>
      </trkpt>
      <trkpt lat="46.04453" lon="6.25504">
        <ele>813.41</ele>
        <time>2020-04-11T14:09:37Z</time>
      </trkpt>
      <trkpt lat="46.04444" lon="6.25468">
        <ele>812.93</ele>
        <time>2020-04-11T14:09:38Z</time>
      </trkpt>
      <trkpt lat="46.04358" lon="6.25119">
        <ele>805.72</ele>
        <time>2020-04-11T14:09:48Z</time>
      </trkpt>
      <trkpt lat="46.04346" lon="6.25087">
        <ele>804.76</ele>
        <time>2020-04-11T14:09:49Z</time>
      </trkpt>
      <trkpt lat="46.04331" lon="6.25057">
        <ele>803.32</ele>
        <time>2020-04-11T14:09:50Z</time>
      </trkpt>
      <trkpt lat="46.04316" lon="6.25027">
        <ele>801.88</ele>
        <time>2020-04-11T14:09:51Z</time>
      </trkpt>
      <trkpt lat="46.043" lon="6.24998">
        <ele>800.44</ele>
        <time>2020-04-11T14:09:52Z</time>
      </trkpt>
      <trkpt lat="46.04281" lon="6.24972">
        <ele>798.99</ele>
        <time>2020-04-11T14:09:53Z</time>
      </trkpt>
      <trkpt lat="46.04123" lon="6.24765">
        <ele>795.15</ele>
        <time>2020-04-11T14:10:01Z</time>
      </trkpt>
      <trkpt lat="46.04102" lon="6.24746">
        <ele>796.11</ele>
        <time>2020-04-11T14:10:02Z</time>
      </trkpt>
      <trkpt lat="46.04078" lon="6.24733">
        <ele>796.59</ele>
        <time>2020-04-11T14:10:03Z</time>
      </trkpt>
      <trkpt lat="46.04054" lon="6.24721">
        <ele>797.55</ele>
        <time>2020-04-11T14:10:04Z</time>
      </trkpt>
      <trkpt lat="46.0403" lon="6.24713">
        <ele>798.03</ele>
        <time>2020-04-11T14:10:05Z</time>
      </trkpt>
      <trkpt lat="46.04005" lon="6.24707">
        <ele>798.99</ele>
        <time>2020-04-11T14:10:06Z</time>
      </trkpt>
      <trkpt lat="46.03957" lon="6.24686">
        <ele>800.44</ele>
        <time>2020-04-11T14:10:08Z</time>
      </trkpt>
      <trkpt lat="46.03934" lon="6.24671">
        <ele>800.44</ele>
        <time>2020-04-11T14:10:09Z</time>
      </trkpt>
      <trkpt lat="46.03913" lon="6.2465">
        <ele>800.92</ele>
        <time>2020-04-11T14:10:10Z</time>
      </trkpt>
      <trkpt lat="46.03892" lon="6.24629">
        <ele>801.4</ele>
        <time>2020-04-11T14:10:11Z</time>
      </trkpt>
      <trkpt lat="46.03875" lon="6.24602">
        <ele>800.92</ele>
        <time>2020-04-11T14:10:12Z</time>
      </trkpt>
      <trkpt lat="46.03859" lon="6.24573">
        <ele>800.44</ele>
        <time>2020-04-11T14:10:13Z</time>
      </trkpt>
      <trkpt lat="46.03846" lon="6.2454">
        <ele>799.95</ele>
        <time>2020-04-11T14:10:14Z</time>
      </trkpt>
      <trkpt lat="46.03836" lon="6.24504">
        <ele>798.99</ele>
        <time>2020-04-11T14:10:15Z</time>
      </trkpt>
      <trkpt lat="46.03827" lon="6.24467">
        <ele>798.51</ele>
        <time>2020-04-11T14:10:16Z</time>
      </trkpt>
      <trkpt lat="46.03819" lon="6.24429">
        <ele>797.55</ele>
        <time>2020-04-11T14:10:17Z</time>
      </trkpt>
      <trkpt lat="46.03776" lon="6.24252">
        <ele>789.86</ele>
        <time>2020-04-11T14:10:22Z</time>
      </trkpt>
      <trkpt lat="46.03765" lon="6.24221">
        <ele>787.94</ele>
        <time>2020-04-11T14:10:23Z</time>
      </trkpt>
      <trkpt lat="46.0375" lon="6.24194">
        <ele>786.5</ele>
        <time>2020-04-11T14:10:24Z</time>
      </trkpt>
      <trkpt lat="46.03734" lon="6.24169">
        <ele>784.57</ele>
        <time>2020-04-11T14:10:25Z</time>
      </trkpt>
      <trkpt lat="46.03717" lon="6.24145">
        <ele>782.65</ele>
        <time>2020-04-11T14:10:26Z</time>
      </trkpt>
      <trkpt lat="46.037" lon="6.24122">
        <ele>781.21</ele>
        <time>2020-04-11T14:10:27Z</time>
      </trkpt>
      <trkpt lat="46.03681" lon="6.24103">
        <ele>779.77</ele>
        <time>2020-04-11T14:10:28Z</time>
      </trkpt>
      <trkpt lat="46.03661" lon="6.24086">
        <ele>778.32</ele>
        <time>2020-04-11T14:10:29Z</time>
      </trkpt>
      <trkpt lat="46.0364" lon="6.24076">
        <ele>776.88</ele>
        <time>2020-04-11T14:10:30Z</time>
      </trkpt>
      <trkpt lat="46.03619" lon="6.24073">
        <ele>775.92</ele>
        <time>2020-04-11T14:10:31Z</time>
      </trkpt>
      <trkpt lat="46.03599" lon="6.24071">
        <ele>774.96</ele>
        <time>2020-04-11T14:10:32Z</time>
      </trkpt>
      <trkpt lat="46.03579" lon="6.24075">
        <ele>773.52</ele>
        <time>2020-04-11T14:10:33Z</time>
      </trkpt>
      <trkpt lat="46.0356" lon="6.24082">
        <ele>772.56</ele>
        <time>2020-04-11T14:10:34Z</time>
      </trkpt>
      <trkpt lat="46.03543" lon="6.24094">
        <ele>771.6</ele>
        <time>2020-04-11T14:10:35Z</time>
      </trkpt>
      <trkpt lat="46.03527" lon="6.24109">
        <ele>770.63</ele>
        <time>2020-04-11T14:10:36Z</time>
      </trkpt>
      <trkpt lat="46.03514" lon="6.2413">
        <ele>769.67</ele>
        <time>2020-04-11T14:10:37Z</time>
      </trkpt>
      <trkpt lat="46.03501" lon="6.24152">
        <ele>768.23</ele>
        <time>2020-04-11T14:10:38Z</time>
      </trkpt>
      <trkpt lat="46.03488" lon="6.24173">
        <ele>767.27</ele>
        <time>2020-04-11T14:10:39Z</time>
      </trkpt>
      <trkpt lat="46.03448" lon="6.24235">
        <ele>763.9</ele>
        <time>2020-04-11T14:10:42Z</time>
      </trkpt>
      <trkpt lat="46.03431" lon="6.24246">
        <ele>762.94</ele>
        <time>2020-04-11T14:10:43Z</time>
      </trkpt>
      <trkpt lat="46.03415" lon="6.24255">
        <ele>761.98</ele>
        <time>2020-04-11T14:10:44Z</time>
      </trkpt>
      <trkpt lat="46.03397" lon="6.24261">
        <ele>760.54</ele>
        <time>2020-04-11T14:10:45Z</time>
      </trkpt>
      <trkpt lat="46.0338" lon="6.24262">
        <ele>759.58</ele>
        <time>2020-04-11T14:10:46Z</time>
      </trkpt>
      <trkpt lat="46.03362" lon="6.24258">
        <ele>759.1</ele>
        <time>2020-04-11T14:10:47Z</time>
      </trkpt>
      <trkpt lat="46.03346" lon="6.2425">
        <ele>758.14</ele>
        <time>2020-04-11T14:10:48Z</time>
      </trkpt>
      <trkpt lat="46.0333" lon="6.24237">
        <ele>757.66</ele>
        <time>2020-04-11T14:10:49Z</time>
      </trkpt>
      <trkpt lat="46.03312" lon="6.24223">
        <ele>757.18</ele>
        <time>2020-04-11T14:10:50Z</time>
      </trkpt>
      <trkpt lat="46.03298" lon="6.24208">
        <ele>756.69</ele>
        <time>2020-04-11T14:10:51Z</time>
      </trkpt>
      <trkpt lat="46.03283" lon="6.24187">
        <ele>756.69</ele>
        <time>2020-04-11T14:10:52Z</time>
      </trkpt>
      <trkpt lat="46.03149" lon="6.24014">
        <ele>753.81</ele>
        <time>2020-04-11T14:11:00Z</time>
      </trkpt>
      <trkpt lat="46.0302" lon="6.2388">
        <ele>749.49</ele>
        <time>2020-04-11T14:11:07Z</time>
      </trkpt>
      <trkpt lat="46.02998" lon="6.23868">
        <ele>749</ele>
        <time>2020-04-11T14:11:08Z</time>
      </trkpt>
      <trkpt lat="46.02912" lon="6.23821">
        <ele>746.12</ele>
        <time>2020-04-11T14:11:12Z</time>
      </trkpt>
      <trkpt lat="46.02739" lon="6.23776">
        <ele>739.39</ele>
        <time>2020-04-11T14:11:20Z</time>
      </trkpt>
      <trkpt lat="46.02554" lon="6.23723">
        <ele>729.3</ele>
        <time>2020-04-11T14:11:30Z</time>
      </trkpt>
      <trkpt lat="46.02538" lon="6.2371">
        <ele>728.34</ele>
        <time>2020-04-11T14:11:31Z</time>
      </trkpt>
      <trkpt lat="46.02524" lon="6.23695">
        <ele>727.37</ele>
        <time>2020-04-11T14:11:32Z</time>
      </trkpt>
      <trkpt lat="46.02512" lon="6.23682">
        <ele>726.41</ele>
        <time>2020-04-11T14:11:33Z</time>
      </trkpt>
      <trkpt lat="46.02499" lon="6.23661">
        <ele>725.45</ele>
        <time>2020-04-11T14:11:34Z</time>
      </trkpt>
      <trkpt lat="46.02488" lon="6.23643">
        <ele>724.97</ele>
        <time>2020-04-11T14:11:35Z</time>
      </trkpt>
      <trkpt lat="46.02477" lon="6.23624">
        <ele>724.01</ele>
        <time>2020-04-11T14:11:36Z</time>
      </trkpt>
      <trkpt lat="46.02393" lon="6.2347">
        <ele>719.2</ele>
        <time>2020-04-11T14:11:44Z</time>
      </trkpt>
      <trkpt lat="46.02379" lon="6.23458">
        <ele>718.72</ele>
        <time>2020-04-11T14:11:45Z</time>
      </trkpt>
      <trkpt lat="46.02272" lon="6.23348">
        <ele>710.55</ele>
        <time>2020-04-11T14:11:54Z</time>
      </trkpt>
      <trkpt lat="46.02178" lon="6.23154">
        <ele>705.26</ele>
        <time>2020-04-11T14:12:05Z</time>
      </trkpt>
      <trkpt lat="46.02148" lon="6.23102">
        <ele>704.3</ele>
        <time>2020-04-11T14:12:08Z</time>
      </trkpt>
      <trkpt lat="46.02136" lon="6.23085">
        <ele>704.3</ele>
        <time>2020-04-11T14:12:09Z</time>
      </trkpt>
      <trkpt lat="46.02098" lon="6.23035">
        <ele>703.34</ele>
        <time>2020-04-11T14:12:12Z</time>
      </trkpt>
      <trkpt lat="46.02085" lon="6.23019">
        <ele>702.86</ele>
        <time>2020-04-11T14:12:13Z</time>
      </trkpt>
      <trkpt lat="46.02074" lon="6.23">
        <ele>702.38</ele>
        <time>2020-04-11T14:12:14Z</time>
      </trkpt>
      <trkpt lat="46.02065" lon="6.22982">
        <ele>702.38</ele>
        <time>2020-04-11T14:12:15Z</time>
      </trkpt>
      <trkpt lat="46.02058" lon="6.2296">
        <ele>701.9</ele>
        <time>2020-04-11T14:12:16Z</time>
      </trkpt>
      <trkpt lat="46.0205" lon="6.22937">
        <ele>701.9</ele>
        <time>2020-04-11T14:12:17Z</time>
      </trkpt>
      <trkpt lat="46.02043" lon="6.22914">
        <ele>701.9</ele>
        <time>2020-04-11T14:12:18Z</time>
      </trkpt>
      <trkpt lat="46.02039" lon="6.22887">
        <ele>701.42</ele>
        <time>2020-04-11T14:12:19Z</time>
      </trkpt>
      <trkpt lat="46.02034" lon="6.22857">
        <ele>701.42</ele>
        <time>2020-04-11T14:12:20Z</time>
      </trkpt>
      <trkpt lat="46.02008" lon="6.22677">
        <ele>699.5</ele>
        <time>2020-04-11T14:12:24Z</time>
      </trkpt>
      <trkpt lat="46.01957" lon="6.22339">
        <ele>693.25</ele>
        <time>2020-04-11T14:12:30Z</time>
      </trkpt>
      <trkpt lat="46.01886" lon="6.21982">
        <ele>685.08</ele>
        <time>2020-04-11T14:12:37Z</time>
      </trkpt>
      <trkpt lat="46.01781" lon="6.21705">
        <ele>682.19</ele>
        <time>2020-04-11T14:12:43Z</time>
      </trkpt>
      <trkpt lat="46.01697" lon="6.21512">
        <ele>681.23</ele>
        <time>2020-04-11T14:12:48Z</time>
      </trkpt>
      <trkpt lat="46.01674" lon="6.21482">
        <ele>681.23</ele>
        <time>2020-04-11T14:12:49Z</time>
      </trkpt>
      <trkpt lat="46.01648" lon="6.21453">
        <ele>681.23</ele>
        <time>2020-04-11T14:12:50Z</time>
      </trkpt>
      <trkpt lat="46.01499" lon="6.21308">
        <ele>678.83</ele>
        <time>2020-04-11T14:12:55Z</time>
      </trkpt>
      <trkpt lat="46.01422" lon="6.21224">
        <ele>675.94</ele>
        <time>2020-04-11T14:12:58Z</time>
      </trkpt>
      <trkpt lat="46.01304" lon="6.21044">
        <ele>671.14</ele>
        <time>2020-04-11T14:13:04Z</time>
      </trkpt>
      <trkpt lat="46.01078" lon="6.2077">
        <ele>663.45</ele>
        <time>2020-04-11T14:13:15Z</time>
      </trkpt>
      <trkpt lat="46.00898" lon="6.20555">
        <ele>661.52</ele>
        <time>2020-04-11T14:13:25Z</time>
      </trkpt>
      <trkpt lat="46.00884" lon="6.20533">
        <ele>661.04</ele>
        <time>2020-04-11T14:13:26Z</time>
      </trkpt>
      <trkpt lat="46.00873" lon="6.20505">
        <ele>660.56</ele>
        <time>2020-04-11T14:13:27Z</time>
      </trkpt>
      <trkpt lat="46.00862" lon="6.20478">
        <ele>660.08</ele>
        <time>2020-04-11T14:13:28Z</time>
      </trkpt>
      <trkpt lat="46.00853" lon="6.20448">
        <ele>659.6</ele>
        <time>2020-04-11T14:13:29Z</time>
      </trkpt>
      <trkpt lat="46.00845" lon="6.20416">
        <ele>659.6</ele>
        <time>2020-04-11T14:13:30Z</time>
      </trkpt>
      <trkpt lat="46.00753" lon="6.20066">
        <ele>650.47</ele>
        <time>2020-04-11T14:13:40Z</time>
      </trkpt>
      <trkpt lat="46.00705" lon="6.19836">
        <ele>640.86</ele>
        <time>2020-04-11T14:13:45Z</time>
      </trkpt>
      <trkpt lat="46.00683" lon="6.19756">
        <ele>637.49</ele>
        <time>2020-04-11T14:13:47Z</time>
      </trkpt>
      <trkpt lat="46.00669" lon="6.19717">
        <ele>636.05</ele>
        <time>2020-04-11T14:13:48Z</time>
      </trkpt>
      <trkpt lat="46.00604" lon="6.19556">
        <ele>627.88</ele>
        <time>2020-04-11T14:13:53Z</time>
      </trkpt>
      <trkpt lat="46.00589" lon="6.19536">
        <ele>626.92</ele>
        <time>2020-04-11T14:13:54Z</time>
      </trkpt>
      <trkpt lat="46.00573" lon="6.19516">
        <ele>625.47</ele>
        <time>2020-04-11T14:13:55Z</time>
      </trkpt>
      <trkpt lat="46.00538" lon="6.19484">
        <ele>622.11</ele>
        <time>2020-04-11T14:13:57Z</time>
      </trkpt>
      <trkpt lat="46.00525" lon="6.19472">
        <ele>620.19</ele>
        <time>2020-04-11T14:13:58Z</time>
      </trkpt>
      <trkpt lat="46.00509" lon="6.19446">
        <ele>618.75</ele>
        <time>2020-04-11T14:13:59Z</time>
      </trkpt>
      <trkpt lat="46.00497" lon="6.19427">
        <ele>616.82</ele>
        <time>2020-04-11T14:14:00Z</time>
      </trkpt>
      <trkpt lat="46.00489" lon="6.19408">
        <ele>615.38</ele>
        <time>2020-04-11T14:14:01Z</time>
      </trkpt>
      <trkpt lat="46.0048" lon="6.19382">
        <ele>613.94</ele>
        <time>2020-04-11T14:14:02Z</time>
      </trkpt>
      <trkpt lat="46.0048" lon="6.1937">
        <ele>612.5</ele>
        <time>2020-04-11T14:14:03Z</time>
      </trkpt>
      <trkpt lat="46.00483" lon="6.19349">
        <ele>611.06</ele>
        <time>2020-04-11T14:14:04Z</time>
      </trkpt>
      <trkpt lat="46.00491" lon="6.19332">
        <ele>609.61</ele>
        <time>2020-04-11T14:14:05Z</time>
      </trkpt>
      <trkpt lat="46.00502" lon="6.19317">
        <ele>607.69</ele>
        <time>2020-04-11T14:14:06Z</time>
      </trkpt>
      <trkpt lat="46.00516" lon="6.19309">
        <ele>606.25</ele>
        <time>2020-04-11T14:14:07Z</time>
      </trkpt>
      <trkpt lat="46.00532" lon="6.19309">
        <ele>604.81</ele>
        <time>2020-04-11T14:14:08Z</time>
      </trkpt>
      <trkpt lat="46.00547" lon="6.1932">
        <ele>603.36</ele>
        <time>2020-04-11T14:14:09Z</time>
      </trkpt>
      <trkpt lat="46.00563" lon="6.19333">
        <ele>602.88</ele>
        <time>2020-04-11T14:14:10Z</time>
      </trkpt>
      <trkpt lat="46.00579" lon="6.19354">
        <ele>602.4</ele>
        <time>2020-04-11T14:14:11Z</time>
      </trkpt>
      <trkpt lat="46.00595" lon="6.19382">
        <ele>602.88</ele>
        <time>2020-04-11T14:14:12Z</time>
      </trkpt>
      <trkpt lat="46.00609" lon="6.19411">
        <ele>602.88</ele>
        <time>2020-04-11T14:14:13Z</time>
      </trkpt>
      <trkpt lat="46.00662" lon="6.19524">
        <ele>601.44</ele>
        <time>2020-04-11T14:14:18Z</time>
      </trkpt>
      <trkpt lat="46.00671" lon="6.19536">
        <ele>600.96</ele>
        <time>2020-04-11T14:14:19Z</time>
      </trkpt>
      <trkpt lat="46.00679" lon="6.1954">
        <ele>600.96</ele>
        <time>2020-04-11T14:14:20Z</time>
      </trkpt>
      <trkpt lat="46.00687" lon="6.19539">
        <ele>600.96</ele>
        <time>2020-04-11T14:14:21Z</time>
      </trkpt>
      <trkpt lat="46.00692" lon="6.19531">
        <ele>600.96</ele>
        <time>2020-04-11T14:14:22Z</time>
      </trkpt>
      <trkpt lat="46.00693" lon="6.1952">
        <ele>600.48</ele>
        <time>2020-04-11T14:14:23Z</time>
      </trkpt>
      <trkpt lat="46.00694" lon="6.19505">
        <ele>600.48</ele>
        <time>2020-04-11T14:14:24Z</time>
      </trkpt>
      <trkpt lat="46.00689" lon="6.1949">
        <ele>600.48</ele>
        <time>2020-04-11T14:14:25Z</time>
      </trkpt>
      <trkpt lat="46.00681" lon="6.1947">
        <ele>600</ele>
        <time>2020-04-11T14:14:26Z</time>
      </trkpt>
      <trkpt lat="46.0067" lon="6.19444">
        <ele>599.04</ele>
        <time>2020-04-11T14:14:27Z</time>
      </trkpt>
      <trkpt lat="46.00619" lon="6.19298">
        <ele>593.75</ele>
        <time>2020-04-11T14:14:31Z</time>
      </trkpt>
      <trkpt lat="46.00521" lon="6.19044">
        <ele>580.29</ele>
        <time>2020-04-11T14:14:38Z</time>
      </trkpt>
      <trkpt lat="46.00492" lon="6.18985">
        <ele>576.45</ele>
        <time>2020-04-11T14:14:40Z</time>
      </trkpt>
      <trkpt lat="46.0046" lon="6.18941">
        <ele>572.6</ele>
        <time>2020-04-11T14:14:42Z</time>
      </trkpt>
      <trkpt lat="46.00445" lon="6.18922">
        <ele>570.68</ele>
        <time>2020-04-11T14:14:43Z</time>
      </trkpt>
      <trkpt lat="46.00407" lon="6.18882">
        <ele>565.87</ele>
        <time>2020-04-11T14:14:46Z</time>
      </trkpt>
      <trkpt lat="46.00406" lon="6.18862">
        <ele>564.43</ele>
        <time>2020-04-11T14:14:47Z</time>
      </trkpt>
      <trkpt lat="46.00402" lon="6.18851">
        <ele>562.99</ele>
        <time>2020-04-11T14:14:48Z</time>
      </trkpt>
      <trkpt lat="46.00402" lon="6.18842">
        <ele>561.55</ele>
        <time>2020-04-11T14:14:49Z</time>
      </trkpt>
      <trkpt lat="46.00405" lon="6.18831">
        <ele>561.07</ele>
        <time>2020-04-11T14:14:50Z</time>
      </trkpt>
      <trkpt lat="46.00409" lon="6.18827">
        <ele>561.07</ele>
        <time>2020-04-11T14:14:51Z</time>
      </trkpt>
      <trkpt lat="46.00416" lon="6.18822">
        <ele>560.59</ele>
        <time>2020-04-11T14:14:52Z</time>
      </trkpt>
      <trkpt lat="46.00426" lon="6.18818">
        <ele>561.07</ele>
        <time>2020-04-11T14:14:53Z</time>
      </trkpt>
      <trkpt lat="46.00433" lon="6.18823">
        <ele>561.07</ele>
        <time>2020-04-11T14:14:54Z</time>
      </trkpt>
      <trkpt lat="46.0044" lon="6.18836">
        <ele>561.07</ele>
        <time>2020-04-11T14:14:55Z</time>
      </trkpt>
      <trkpt lat="46.00445" lon="6.18849">
        <ele>561.55</ele>
        <time>2020-04-11T14:14:56Z</time>
      </trkpt>
      <trkpt lat="46.0045" lon="6.18862">
        <ele>561.55</ele>
        <time>2020-04-11T14:14:57Z</time>
      </trkpt>
      <trkpt lat="46.00448" lon="6.18889">
        <ele>562.03</ele>
        <time>2020-04-11T14:14:58Z</time>
      </trkpt>
      <trkpt lat="46.00439" lon="6.18897">
        <ele>562.51</ele>
        <time>2020-04-11T14:14:59Z</time>
      </trkpt>
      <trkpt lat="46.00431" lon="6.18908">
        <ele>562.99</ele>
        <time>2020-04-11T14:15:00Z</time>
      </trkpt>
      <trkpt lat="46.0042" lon="6.18923">
        <ele>563.47</ele>
        <time>2020-04-11T14:15:01Z</time>
      </trkpt>
      <trkpt lat="46.0041" lon="6.18939">
        <ele>563.95</ele>
        <time>2020-04-11T14:15:02Z</time>
      </trkpt>
      <trkpt lat="46.004" lon="6.18958">
        <ele>564.91</ele>
        <time>2020-04-11T14:15:03Z</time>
      </trkpt>
      <trkpt lat="46.00395" lon="6.18981">
        <ele>565.87</ele>
        <time>2020-04-11T14:15:04Z</time>
      </trkpt>
      <trkpt lat="46.00389" lon="6.19007">
        <ele>566.35</ele>
        <time>2020-04-11T14:15:05Z</time>
      </trkpt>
      <trkpt lat="46.00383" lon="6.19036">
        <ele>567.32</ele>
        <time>2020-04-11T14:15:06Z</time>
      </trkpt>
      <trkpt lat="46.00314" lon="6.19374">
        <ele>572.12</ele>
        <time>2020-04-11T14:15:16Z</time>
      </trkpt>
      <trkpt lat="46.00287" lon="6.19621">
        <ele>570.68</ele>
        <time>2020-04-11T14:15:23Z</time>
      </trkpt>
      <trkpt lat="46.00283" lon="6.19753">
        <ele>570.2</ele>
        <time>2020-04-11T14:15:27Z</time>
      </trkpt>
      <trkpt lat="46.00279" lon="6.19784">
        <ele>570.2</ele>
        <time>2020-04-11T14:15:28Z</time>
      </trkpt>
      <trkpt lat="46.00272" lon="6.19812">
        <ele>570.2</ele>
        <time>2020-04-11T14:15:29Z</time>
      </trkpt>
      <trkpt lat="46.00262" lon="6.1984">
        <ele>570.2</ele>
        <time>2020-04-11T14:15:30Z</time>
      </trkpt>
      <trkpt lat="46.00251" lon="6.19868">
        <ele>570.2</ele>
        <time>2020-04-11T14:15:31Z</time>
      </trkpt>
      <trkpt lat="46.00202" lon="6.19998">
        <ele>571.64</ele>
        <time>2020-04-11T14:15:37Z</time>
      </trkpt>
      <trkpt lat="46.00194" lon="6.20018">
        <ele>571.64</ele>
        <time>2020-04-11T14:15:39Z</time>
      </trkpt>
      <trkpt lat="46.00193" lon="6.20023">
        <ele>571.64</ele>
        <time>2020-04-11T14:15:40Z</time>
      </trkpt>
      <trkpt lat="46.00184" lon="6.20007">
        <ele>572.6</ele>
        <time>2020-04-11T14:15:44Z</time>
      </trkpt>
      <trkpt lat="46.00184" lon="6.20001">
        <ele>573.08</ele>
        <time>2020-04-11T14:15:46Z</time>
      </trkpt>
      <trkpt lat="46.00184" lon="6.19999">
        <ele>574.04</ele>
        <time>2020-04-11T14:15:57Z</time>
      </trkpt>
      <trkpt lat="46.00184" lon="6.2">
        <ele>574.04</ele>
        <time>2020-04-11T14:16:12Z</time>
      </trkpt>
      <trkpt lat="46.00184" lon="6.2">
        <ele>574.04</ele>
        <time>2020-04-11T14:16:39Z</time>
      </trkpt>
      <trkpt lat="46.00183" lon="6.20001">
        <ele>573.56</ele>
        <time>2020-04-11T14:17:27Z</time>
      </trkpt>
    </trkseg>
  </trk>
</gpx>